Time;durP1;ratioP1;P1;durP2;ratioP2;P2;SDS_P1;SDS_P2;PMS_P1;PMS_P2;Temp;Humidity;BMP_temperature;BMP_pressure;BME280_temperature;BME280_humidity;BME280_pressure;Samples;Min_cycle;Max_cycle;Signal;HPM_P1;HPM_P2
2022/04/01 00:01:25;;;;;;;18.77;15.15;;;;;;;12.91;50.46;96876.91;5092355;28;20512;-50
2022/04/01 00:03:51;;;;;;;23.83;15.70;;;;;;;12.92;50.25;96875.88;5092446;28;20017;-49
2022/04/01 00:06:17;;;;;;;20.80;16.42;;;;;;;12.74;50.29;96879.78;5090995;28;20032;-49
2022/04/01 00:08:43;;;;;;;20.75;16.08;;;;;;;12.47;50.77;96877.28;5092276;28;20055;-50
2022/04/01 00:11:09;;;;;;;44.35;39.22;;;;;;;12.30;50.85;96868.81;5092296;28;20023;-50
2022/04/01 00:13:35;;;;;;;20.33;16.23;;;;;;;12.12;51.23;96876.09;5092238;28;20107;-50
2022/04/01 00:16:01;;;;;;;21.80;16.55;;;;;;;11.95;51.74;96875.44;5092149;28;20102;-49
2022/04/01 00:18:27;;;;;;;21.55;14.73;;;;;;;12.10;52.48;96874.75;5092136;28;20393;-49
2022/04/01 00:20:53;;;;;;;26.60;15.32;;;;;;;12.36;52.09;96868.56;5092147;28;20454;-49
2022/04/01 00:23:18;;;;;;;24.30;17.67;;;;;;;12.37;51.89;96870.19;5092066;28;20103;-50
2022/04/01 00:25:45;;;;;;;24.95;16.67;;;;;;;12.28;51.81;96865.66;5090732;28;20028;-49
2022/04/01 00:28:11;;;;;;;24.42;16.33;;;;;;;12.25;52.14;96861.69;5091716;28;20097;-50
2022/04/01 00:30:38;;;;;;;27.23;16.25;;;;;;;12.44;51.80;96869.16;5092027;28;20036;-49
2022/04/01 00:33:08;;;;;;;21.73;14.70;;;;;;;12.50;51.54;96865.50;5091985;28;20371;-49
2022/04/01 00:35:35;;;;;;;40.10;35.85;;;;;;;12.37;51.03;96866.72;5091893;28;20101;-50
2022/04/01 00:38:02;;;;;;;20.27;16.05;;;;;;;11.84;52.09;96860.63;5091923;28;20016;-50
2022/04/01 00:40:27;;;;;;;25.05;15.93;;;;;;;11.61;53.47;96862.59;5090552;28;20513;-49
2022/04/01 00:42:53;;;;;;;20.73;14.15;;;;;;;11.78;53.59;96855.34;5091927;28;20042;-50
2022/04/01 00:45:19;;;;;;;25.67;16.52;;;;;;;12.18;53.00;96854.03;5091791;28;20066;-50
2022/04/01 00:47:45;;;;;;;19.92;14.73;;;;;;;12.47;52.21;96858.09;5091758;28;20095;-50
2022/04/01 00:50:11;;;;;;;20.08;15.05;;;;;;;12.66;51.49;96859.22;5090430;28;20056;-50
2022/04/01 00:52:37;;;;;;;24.73;20.60;;;;;;;12.58;51.48;96855.25;5091785;28;20013;-49
2022/04/01 00:55:08;;;;;;;20.60;16.42;;;;;;;12.07;52.84;96854.22;5091720;28;20024;-50
2022/04/01 00:57:36;;;;;;;19.17;14.45;;;;;;;12.14;52.89;96855.59;5091734;28;20104;-50
2022/04/01 01:00:07;;;;;;;18.92;14.55;;;;;;;12.40;52.72;96847.81;5091643;28;20028;-49
2022/04/01 01:02:34;;;;;;;25.02;15.63;;;;;;;12.65;52.28;96856.84;5095945;28;20055;-49
2022/04/01 01:05:00;;;;;;;24.48;15.57;;;;;;;12.62;51.96;96852.13;5095758;28;20123;-50
2022/04/01 01:07:26;;;;;;;21.10;14.40;;;;;;;12.48;51.89;96854.44;5095788;28;20561;-49
2022/04/01 01:09:52;;;;;;;19.15;15.10;;;;;;;12.62;52.09;96849.47;5094331;28;20123;-50
2022/04/01 01:12:19;;;;;;;19.00;14.38;;;;;;;12.76;51.23;96850.56;5095731;28;20436;-50
2022/04/01 01:14:45;;;;;;;21.20;14.85;;;;;;;12.76;51.29;96851.34;5095680;28;20452;-49
2022/04/01 01:17:12;;;;;;;23.55;16.00;;;;;;;12.73;51.54;96856.34;5095509;28;20055;-50
2022/04/01 01:19:39;;;;;;;18.83;14.85;;;;;;;12.59;51.46;96842.88;5095574;28;20062;-49
2022/04/01 01:22:06;;;;;;;23.25;16.25;;;;;;;12.47;51.86;96843.09;5095454;28;20044;-49
2022/04/01 01:24:37;;;;;;;24.50;16.98;;;;;;;12.47;52.48;96848.34;5094110;28;20020;-49
2022/04/01 01:27:07;;;;;;;21.98;16.60;;;;;;;12.55;52.73;96844.44;5095422;28;20053;-49
2022/04/01 01:29:37;;;;;;;20.00;15.88;;;;;;;12.57;53.00;96847.59;5095115;28;20514;-50
2022/04/01 01:32:06;;;;;;;26.85;16.27;;;;;;;12.51;52.57;96844.16;5095235;28;20028;-50
2022/04/01 01:34:32;;;;;;;20.75;14.70;;;;;;;12.34;52.47;96844.38;5093897;28;20036;-50
2022/04/01 01:37:00;;;;;;;25.88;22.17;;;;;;;11.85;52.74;96835.94;5095231;28;20547;-49
2022/04/01 01:39:26;;;;;;;21.73;15.95;;;;;;;11.48;53.92;96848.03;5095198;28;20016;-49
2022/04/01 01:41:53;;;;;;;21.38;16.10;;;;;;;11.44;54.75;96846.94;5095002;28;20020;-48
2022/04/01 01:44:20;;;;;;;29.45;19.15;;;;;;;11.51;53.96;96838.84;5095098;28;20013;-49
2022/04/01 01:46:46;;;;;;;23.80;18.98;;;;;;;11.40;54.05;96846.66;5095056;28;20371;-49
2022/04/01 01:49:12;;;;;;;22.98;18.73;;;;;;;11.31;54.13;96842.91;5094851;28;20024;-48
2022/04/01 01:57:09;;;;;;;22.75;16.38;;;;;;;10.72;54.21;96845.50;5095115;28;20084;-49
2022/04/01 01:59:34;;;;;;;25.38;16.75;;;;;;;10.61;54.76;96849.06;5093499;28;20031;-50
2022/04/01 02:02:05;;;;;;;23.35;14.13;;;;;;;10.61;54.48;96833.34;5094756;28;20036;-49
2022/04/01 02:04:31;;;;;;;17.80;12.63;;;;;;;10.47;54.53;96844.19;5094796;28;20130;-48
2022/04/01 02:06:56;;;;;;;13.40;10.38;;;;;;;10.35;53.80;96854.78;5094581;28;20103;-48
2022/04/01 02:09:22;;;;;;;11.25;9.75;;;;;;;10.09;54.08;96853.66;5094545;28;20142;-49
2022/04/01 02:11:48;;;;;;;14.30;11.27;;;;;;;9.93;55.11;96871.00;5094206;28;20031;-47
2022/04/01 02:14:14;;;;;;;19.70;9.13;;;;;;;9.93;55.33;96878.06;5092698;28;20499;-49
2022/04/01 02:16:43;;;;;;;12.48;10.05;;;;;;;10.11;54.73;96885.66;5094454;28;20490;-49
2022/04/01 02:19:20;;;;;;;10.65;9.55;;;;;;;10.08;53.60;96891.41;5094448;28;20109;-48
2022/04/01 02:21:51;;;;;;;12.80;9.00;;;;;;;10.05;53.66;96891.88;5094403;28;20039;-49
2022/04/01 02:24:18;;;;;;;14.30;7.05;;;;;;;10.24;52.87;96902.88;5093059;28;20493;-49
2022/04/01 02:26:49;;;;;;;8.27;6.30;;;;;;;10.31;52.73;96902.72;5094346;28;20020;-48
2022/04/01 02:29:19;;;;;;;6.15;5.55;;;;;;;10.43;51.92;96910.50;5094007;28;20398;-49
2022/04/01 02:31:50;;;;;;;5.93;4.38;;;;;;;10.52;51.64;96904.59;5094246;28;20391;-49
2022/04/01 02:34:16;;;;;;;87.82;78.28;;;;;;;10.69;51.04;96901.88;5094181;28;20114;-48
2022/04/01 02:36:43;;;;;;;17.80;13.55;;;;;;;10.57;51.41;96909.09;5094093;28;20028;-50
2022/04/01 02:39:09;;;;;;;12.50;7.20;;;;;;;10.27;51.65;96902.38;5094055;28;20103;-49
2022/04/01 02:41:35;;;;;;;27.65;17.88;;;;;;;10.06;52.96;96914.44;5092639;28;20020;-49
2022/04/01 02:44:08;;;;;;;5.68;5.18;;;;;;;9.97;52.86;96934.19;5092616;28;20024;-49
2022/04/01 02:46:39;;;;;;;9.98;5.63;;;;;;;9.88;52.82;96927.75;5092593;28;20497;-49
2022/04/01 02:49:07;;;;;;;7.13;5.03;;;;;;;9.73;52.74;96939.59;5093792;28;20020;-49
2022/04/01 02:51:36;;;;;;;8.20;7.30;;;;;;;9.56;52.57;96936.97;5093720;28;20017;-48
2022/04/01 02:54:06;;;;;;;5.15;4.35;;;;;;;9.51;52.03;96933.47;5093729;28;20035;-48
2022/04/01 02:56:33;;;;;;;9.05;6.47;;;;;;;9.38;51.27;96929.34;5093717;28;20024;-49
2022/04/01 02:59:00;;;;;;;11.13;5.38;;;;;;;9.31;52.05;96934.69;5092256;28;20530;-49
2022/04/01 03:01:30;;;;;;;7.13;5.45;;;;;;;9.38;52.27;96943.22;5092260;28;20016;-49
2022/04/01 03:03:56;;;;;;;9.13;6.28;;;;;;;9.33;50.87;96943.13;5093563;28;20046;-49
2022/04/01 03:06:22;;;;;;;6.15;4.75;;;;;;;9.25;51.75;96933.03;5093478;28;20059;-49
2022/04/01 03:08:49;;;;;;;9.43;5.05;;;;;;;9.43;51.64;96945.13;5092008;28;20486;-48
2022/04/01 03:11:16;;;;;;;5.28;4.63;;;;;;;9.50;51.10;96952.84;5092047;28;20120;-48
2022/04/01 03:13:42;;;;;;;13.18;6.18;;;;;;;9.43;50.74;96945.13;5093356;28;20046;-49
2022/04/01 03:16:08;;;;;;;7.40;4.63;;;;;;;9.39;50.87;96955.25;5091962;28;20453;-49
2022/04/01 03:18:39;;;;;;;29.02;21.92;;;;;;;9.38;51.17;96968.63;5093255;28;20024;-48
2022/04/01 03:21:04;;;;;;;6.13;5.45;;;;;;;9.41;50.88;96968.13;5093242;28;20020;-49
2022/04/01 03:23:30;;;;;;;6.03;4.25;;;;;;;9.55;50.72;96973.88;5093205;28;20020;-48
2022/04/01 03:25:56;;;;;;;6.65;5.60;;;;;;;9.52;49.74;96974.34;5093353;28;20017;-48
2022/04/01 03:28:22;;;;;;;6.88;5.95;;;;;;;9.26;51.20;96979.13;5091462;28;20468;-49
2022/04/01 03:30:50;;;;;;;8.18;4.93;;;;;;;9.31;51.99;96991.50;5091725;28;20028;-48
2022/04/01 03:33:17;;;;;;;6.68;4.20;;;;;;;9.50;52.37;96987.69;5093030;28;20026;-48
2022/04/01 03:35:44;;;;;;;11.80;4.40;;;;;;;9.42;51.65;97001.16;5093202;28;20487;-48
2022/04/01 03:38:11;;;;;;;22.60;19.67;;;;;;;9.08;54.12;96995.81;5092903;28;20016;-49
2022/04/01 03:40:40;;;;;;;13.82;6.72;;;;;;;9.12;56.23;96998.75;5092834;28;20027;-49
2022/04/01 03:43:05;;;;;;;9.77;5.43;;;;;;;8.99;56.62;97012.88;5091557;28;20021;-49
2022/04/01 03:45:35;;;;;;;11.25;7.10;;;;;;;8.68;58.21;97008.84;5091410;28;20042;-50
2022/04/01 03:48:12;;;;;;;51.08;42.15;;;;;;;8.50;59.43;97025.47;5091279;28;20566;-48
2022/04/01 03:50:40;;;;;;;18.65;15.60;;;;;;;8.32;60.74;97029.72;5092684;28;20063;-49
2022/04/01 03:53:08;;;;;;;9.57;6.25;;;;;;;8.16;62.11;97028.59;5092640;28;20058;-49
2022/04/01 03:55:36;;;;;;;16.27;6.70;;;;;;;7.92;62.83;97019.91;5092554;28;20020;-48
2022/04/01 03:58:12;;;;;;;13.63;9.50;;;;;;;7.62;63.51;97037.44;5092494;28;20028;-48
2022/04/01 04:00:41;;;;;;;17.35;14.45;;;;;;;7.41;65.15;97029.06;5092540;28;20028;-48
2022/04/01 04:03:09;;;;;;;15.68;9.00;;;;;;;7.26;65.63;97033.88;5092433;28;20154;-48
2022/04/01 04:05:37;;;;;;;12.60;6.47;;;;;;;7.19;66.84;97041.78;5091055;28;20581;-49
2022/04/01 04:08:04;;;;;;;11.82;6.47;;;;;;;7.09;66.79;97042.31;5092252;28;20489;-50
2022/04/01 04:10:32;;;;;;;8.63;5.63;;;;;;;7.11;67.19;97055.13;5092306;28;20028;-50
2022/04/01 04:12:59;;;;;;;11.20;7.43;;;;;;;7.02;67.33;97046.00;5090939;28;20493;-49
2022/04/01 04:15:27;;;;;;;12.48;6.22;;;;;;;6.83;67.45;97053.81;5092285;28;20024;-49
2022/04/01 04:18:01;;;;;;;8.23;5.20;;;;;;;6.65;68.83;97054.59;5090878;28;20427;-50
2022/04/01 04:20:42;;;;;;;11.45;5.47;;;;;;;6.53;69.39;97044.06;5090877;28;20043;-49
2022/04/01 04:23:31;;;;;;;18.17;13.00;;;;;;;6.55;69.84;97055.06;5092204;28;20032;-49
2022/04/01 04:26:04;;;;;;;13.02;4.75;;;;;;;6.35;68.31;97068.28;5092132;28;20501;-50
2022/04/01 04:28:36;;;;;;;5.15;4.45;;;;;;;6.00;68.83;97081.75;5091766;28;20525;-48
2022/04/01 04:31:05;;;;;;;12.38;5.07;;;;;;;5.83;70.33;97087.66;5092068;28;20028;-50
2022/04/01 04:33:31;;;;;;;12.20;8.45;;;;;;;5.71;70.72;97095.31;5092072;28;20027;-49
2022/04/01 04:36:05;;;;;;;6.95;4.70;;;;;;;5.56;70.73;97088.59;5091552;28;20016;-48
2022/04/01 04:38:39;;;;;;;5.55;5.00;;;;;;;5.35;71.34;97097.50;5090697;28;20047;-51
2022/04/01 04:41:10;;;;;;;7.50;5.53;;;;;;;5.15;71.82;97099.34;5092011;28;20397;-51
2022/04/01 04:43:44;;;;;;;6.50;5.32;;;;;;;5.05;72.00;97105.00;5090575;28;20266;-51
2022/04/01 04:46:10;;;;;;;19.13;14.60;;;;;;;4.83;72.56;97109.63;5091910;28;20016;-52
2022/04/01 04:48:40;;;;;;;17.15;9.00;;;;;;;4.99;74.24;97116.22;5091736;28;20390;-49
2022/04/01 04:51:07;;;;;;;7.07;5.57;;;;;;;5.10;74.16;97117.38;5090460;28;20020;-50
2022/04/01 04:53:34;;;;;;;12.98;6.40;;;;;;;5.04;74.12;97118.19;5091824;28;20471;-51
2022/04/01 04:56:02;;;;;;;10.57;9.38;;;;;;;5.07;74.76;97122.97;5090439;28;20020;-50
2022/04/01 04:58:43;;;;;;;17.27;12.82;;;;;;;5.20;75.51;97128.16;5091761;28;20509;-51
2022/04/01 05:01:40;;;;;;;8.88;5.30;;;;;;;5.27;75.46;97130.72;5091673;28;20056;-49
2022/04/01 05:04:25;;;;;;;5.72;5.13;;;;;;;5.23;75.32;97139.94;5091753;28;20035;-50
2022/04/01 05:07:16;;;;;;;6.50;4.05;;;;;;;5.30;76.29;97138.91;5090390;28;20063;-49
2022/04/01 05:09:47;;;;;;;13.48;7.95;;;;;;;5.42;76.11;97141.69;5090330;28;20028;-49
2022/04/01 05:12:32;;;;;;;10.27;6.30;;;;;;;5.51;76.20;97147.44;5091626;28;20028;-49
2022/04/01 05:15:08;;;;;;;7.20;3.60;;;;;;;5.51;75.08;97148.25;5090359;28;20064;-49
2022/04/01 05:17:47;;;;;;;8.60;4.10;;;;;;;5.30;75.36;97151.94;5091622;28;20460;-48
2022/04/01 05:20:18;;;;;;;11.77;3.78;;;;;;;5.27;75.05;97154.13;5091604;28;20567;-48
2022/04/01 05:23:06;;;;;;;3.28;2.97;;;;;;;5.03;74.61;97155.56;5090298;28;20106;-49
2022/04/01 05:25:40;;;;;;;7.70;4.32;;;;;;;4.92;75.69;97149.19;5090192;28;20036;-48
2022/04/01 05:28:19;;;;;;;4.60;2.53;;;;;;;4.93;75.20;97156.81;5091203;28;20032;-48
2022/04/01 05:30:45;;;;;;;10.10;2.67;;;;;;;4.52;73.81;97151.81;5091536;28;20073;-48
2022/04/01 05:33:17;;;;;;;6.30;2.97;;;;;;;4.32;76.58;97160.38;5091488;28;20066;-48
2022/04/01 05:35:51;;;;;;;7.32;2.60;;;;;;;4.33;76.30;97169.00;5091464;28;20059;-48
2022/04/01 05:38:22;;;;;;;8.80;3.05;;;;;;;4.14;76.64;97176.53;5091422;28;20401;-49
2022/04/01 05:40:50;;;;;;;7.70;2.70;;;;;;;4.04;77.33;97173.50;5091432;28;20489;-48
2022/04/01 05:43:17;;;;;;;3.90;1.90;;;;;;;4.16;78.03;97173.72;5090047;28;20067;-49
2022/04/01 05:45:44;;;;;;;4.38;2.90;;;;;;;4.11;77.63;97186.53;5091312;28;20100;-49
2022/04/01 05:48:11;;;;;;;3.15;2.85;;;;;;;3.95;77.16;97191.06;5092914;28;20023;-52
2022/04/01 05:50:38;;;;;;;8.75;5.35;;;;;;;3.83;78.05;97210.78;5094964;28;20022;-51
2022/04/01 05:53:07;;;;;;;5.63;4.25;;;;;;;3.83;78.21;97221.16;5095242;28;20020;-54
2022/04/01 05:55:34;;;;;;;8.20;4.57;;;;;;;3.90;79.03;97226.38;5094871;28;20024;-54
2022/04/01 05:58:05;;;;;;;14.60;7.05;;;;;;;3.88;78.96;97230.94;5095102;28;20367;-55
2022/04/01 06:00:37;;;;;;;11.27;3.85;;;;;;;3.87;79.80;97235.34;5094814;28;20065;-54
2022/04/01 06:03:28;;;;;;;7.40;4.50;;;;;;;4.02;80.19;97230.00;5094791;28;20036;-55
2022/04/01 06:05:56;;;;;;;5.18;4.47;;;;;;;4.18;80.09;97240.03;5094749;28;20050;-56
2022/04/01 06:08:53;;;;;;;6.88;3.47;;;;;;;4.28;79.48;97233.69;5093286;28;20111;-55
2022/04/01 06:11:34;;;;;;;5.40;4.30;;;;;;;4.17;79.37;97245.44;5094616;28;20541;-55
2022/04/01 06:14:03;;;;;;;11.32;9.23;;;;;;;4.26;80.00;97252.06;5094610;28;20027;-55
2022/04/01 06:16:50;;;;;;;7.05;5.05;;;;;;;4.34;80.02;97258.88;5094453;28;20049;-54
2022/04/01 06:19:41;;;;;;;4.68;4.00;;;;;;;4.42;79.86;97263.88;5093167;28;20508;-54
2022/04/01 06:22:14;;;;;;;8.43;3.88;;;;;;;4.32;78.85;97274.66;5094447;28;20024;-54
2022/04/01 06:25:10;;;;;;;8.02;3.53;;;;;;;4.28;78.99;97288.22;5094395;28;20047;-55
2022/04/01 06:27:41;;;;;;;;;;;;;;;4.24;79.64;97285.22;5094767;28;20032;-55
2022/04/01 06:30:15;;;;;;;10.27;5.72;;;;;;;4.40;79.44;97282.25;5093966;28;19916;-55
2022/04/01 06:33:03;;;;;;;6.47;5.30;;;;;;;4.41;79.60;97303.88;5092921;28;20024;-53
2022/04/01 06:35:59;;;;;;;31.88;5.70;;;;;;;4.46;79.53;97301.47;5092837;28;20513;-53
2022/04/01 06:38:54;;;;;;;46.60;6.38;;;;;;;4.52;79.96;97308.47;5094137;28;20077;-51
2022/04/01 06:41:23;;;;;;;36.80;5.38;;;;;;;4.63;79.83;97325.31;5088224;28;20038;-51
2022/04/01 06:43:49;;;;;;;17.27;7.65;;;;;;;4.82;80.42;97317.75;5093892;28;20027;-56
2022/04/01 06:46:15;;;;;;;17.38;11.60;;;;;;;4.92;79.35;97320.78;5093860;28;20443;-51
2022/04/01 06:48:41;;;;;;;22.15;14.18;;;;;;;4.91;79.58;97332.16;5093788;28;20020;-52
2022/04/01 06:51:08;;;;;;;27.55;17.65;;;;;;;5.02;79.30;97336.78;5093797;28;20016;-50
2022/04/01 06:53:37;;;;;;;11.85;8.23;;;;;;;5.07;79.70;97346.56;5093741;28;20019;-51
2022/04/01 06:56:04;;;;;;;6.68;6.00;;;;;;;5.01;79.61;97340.38;5093693;28;20126;-52
2022/04/01 06:58:30;;;;;;;20.05;10.60;;;;;;;4.92;79.22;97355.34;5093267;28;20525;-52
2022/04/01 07:00:57;;;;;;;8.05;4.32;;;;;;;4.85;78.79;97351.97;5093665;28;20076;-52
2022/04/01 07:03:23;;;;;;;7.63;5.93;;;;;;;4.75;79.08;97359.34;5093803;28;20426;-52
2022/04/01 07:05:49;;;;;;;7.68;4.95;;;;;;;4.76;79.04;97358.31;5093505;28;20518;-53
2022/04/01 07:08:17;;;;;;;16.20;10.45;;;;;;;4.66;78.78;97363.09;5093474;28;20098;-53
2022/04/01 07:10:42;;;;;;;10.07;6.00;;;;;;;4.57;78.59;97378.06;5093698;28;20028;-54
2022/04/01 07:13:10;;;;;;;10.63;5.45;;;;;;;4.47;78.67;97391.41;5093394;28;20111;-54
2022/04/01 07:15:35;;;;;;;8.75;5.70;;;;;;;4.42;79.27;97390.38;5093330;28;20020;-52
2022/04/01 07:18:02;;;;;;;10.15;5.65;;;;;;;4.34;78.68;97392.13;5093381;28;20032;-56
2022/04/01 07:20:29;;;;;;;8.43;5.90;;;;;;;4.35;79.61;97390.34;5093240;28;20020;-54
2022/04/01 07:22:55;;;;;;;12.85;5.70;;;;;;;4.50;80.37;97392.81;5093304;28;20032;-55
2022/04/01 07:25:22;;;;;;;50.53;34.80;;;;;;;4.59;79.83;97392.44;5093208;28;20095;-56
2022/04/01 07:27:52;;;;;;;24.92;19.38;;;;;;;4.60;80.32;97393.25;5093126;28;20032;-57
2022/04/01 07:30:18;;;;;;;137.00;101.07;;;;;;;4.71;80.58;97397.06;5093037;28;20032;-54
2022/04/01 07:32:44;;;;;;;21.98;15.85;;;;;;;4.67;79.84;97385.47;5093002;28;20020;-57
2022/04/01 07:35:14;;;;;;;53.70;39.45;;;;;;;4.59;79.86;97397.66;5092930;28;20099;-57
2022/04/01 07:37:46;;;;;;;13.73;7.60;;;;;;;4.62;79.57;97403.44;5092903;28;20529;-56
2022/04/01 07:40:13;;;;;;;6.20;4.00;;;;;;;4.56;79.21;97387.63;5092916;28;20082;-56
2022/04/01 07:42:39;;;;;;;7.95;5.45;;;;;;;4.42;78.72;97414.53;5092780;28;20039;-55
2022/04/01 07:45:06;;;;;;;10.57;3.92;;;;;;;4.47;78.82;97401.78;5091475;28;20108;-55
2022/04/01 07:47:33;;;;;;;11.20;6.60;;;;;;;4.46;77.83;97418.34;5092670;28;20478;-55
2022/04/01 07:50:00;;;;;;;11.68;5.65;;;;;;;4.43;78.94;97417.94;5092625;28;20024;-55
2022/04/01 07:52:27;;;;;;;6.22;4.85;;;;;;;4.52;79.29;97412.41;5092563;28;20035;-54
2022/04/01 07:54:53;;;;;;;7.65;4.15;;;;;;;4.50;78.81;97422.19;5092645;28;20030;-54
2022/04/01 07:57:20;;;;;;;9.93;4.95;;;;;;;4.52;79.24;97437.56;5092499;28;20028;-53
2022/04/01 07:59:46;;;;;;;8.05;5.75;;;;;;;4.58;78.70;97432.41;5092546;28;20073;-54
2022/04/01 08:02:13;;;;;;;9.20;5.20;;;;;;;4.68;79.48;97433.84;5092501;28;20028;-54
2022/04/01 08:04:39;;;;;;;15.48;5.60;;;;;;;4.71;79.46;97454.25;5091133;28;20053;-53
2022/04/01 08:07:05;;;;;;;7.22;4.07;;;;;;;4.89;79.82;97449.34;5092408;28;20024;-54
2022/04/01 08:09:33;;;;;;;8.43;4.97;;;;;;;4.92;78.25;97451.53;5090954;28;20024;-53
2022/04/01 08:11:59;;;;;;;11.52;6.38;;;;;;;4.92;78.74;97458.53;5091846;28;20069;-52
2022/04/01 08:14:25;;;;;;;13.80;5.60;;;;;;;5.03;79.57;97467.56;5092216;28;20443;-51
2022/04/01 08:16:51;;;;;;;19.85;7.18;;;;;;;5.15;79.58;97468.63;5092219;28;20107;-50
2022/04/01 08:19:16;;;;;;;10.85;6.22;;;;;;;5.17;79.42;97472.66;5092246;28;20493;-51
2022/04/01 08:21:44;;;;;;;12.82;6.60;;;;;;;5.22;79.80;97479.06;5092391;28;20028;-51
2022/04/01 08:24:12;;;;;;;11.85;6.25;;;;;;;5.33;79.38;97481.91;5092138;28;20021;-51
2022/04/01 08:26:38;;;;;;;19.42;7.30;;;;;;;5.37;79.21;97483.09;5090827;28;20451;-49
2022/04/01 08:29:03;;;;;;;18.30;7.00;;;;;;;5.34;79.03;97482.69;5091722;28;20119;-51
2022/04/01 08:31:33;;;;;;;17.95;6.20;;;;;;;5.40;78.93;97487.09;5091962;28;20119;-51
2022/04/01 08:33:59;;;;;;;13.25;5.45;;;;;;;5.53;79.06;97494.13;5091934;28;20111;-51
2022/04/01 08:36:26;;;;;;;10.70;4.65;;;;;;;5.71;79.25;97498.75;5091936;28;20497;-50
2022/04/01 08:38:52;;;;;;;11.25;5.25;;;;;;;5.84;78.66;97509.19;5092006;28;20055;-53
2022/04/01 08:41:20;;;;;;;8.40;5.43;;;;;;;5.84;78.75;97514.41;5090577;28;20101;-52
2022/04/01 08:43:47;;;;;;;13.43;6.18;;;;;;;5.89;78.53;97512.00;5091939;28;20457;-52
2022/04/01 08:46:14;;;;;;;12.18;6.55;;;;;;;5.92;78.37;97503.00;5091867;28;20117;-51
2022/04/01 08:48:41;;;;;;;12.60;4.85;;;;;;;5.92;76.89;97516.03;5091755;28;20517;-50
2022/04/01 08:51:07;;;;;;;13.88;5.75;;;;;;;5.93;77.02;97515.81;5090499;28;20401;-52
2022/04/01 08:53:41;;;;;;;15.25;6.57;;;;;;;6.09;77.71;97509.44;5091777;28;20032;-49
2022/04/01 08:56:08;;;;;;;11.27;3.80;;;;;;;6.31;77.77;97510.03;5091823;28;20056;-49
2022/04/01 08:58:35;;;;;;;11.50;3.60;;;;;;;6.47;76.73;97508.00;5090459;28;20028;-51
2022/04/01 09:01:02;;;;;;;13.05;4.38;;;;;;;6.61;75.19;97509.59;5091757;28;20099;-48
2022/04/01 09:03:29;;;;;;;10.63;3.13;;;;;;;6.79;72.86;97511.56;5092001;28;20036;-48
2022/04/01 09:05:57;;;;;;;6.05;2.40;;;;;;;6.86;71.04;97520.19;5091742;28;20379;-48
2022/04/01 09:08:35;;;;;;;4.60;2.85;;;;;;;6.73;69.63;97512.38;5091661;28;20020;-48
2022/04/01 09:11:02;;;;;;;6.25;2.10;;;;;;;6.69;69.23;97504.16;5090397;28;20509;-50
2022/04/01 09:13:31;;;;;;;8.48;3.33;;;;;;;6.76;67.93;97517.16;5091642;28;20099;-46
2022/04/01 09:15:56;;;;;;;9.07;2.33;;;;;;;6.71;68.19;97504.75;5091603;28;20062;-47
2022/04/01 09:18:56;;;;;;;8.70;2.33;;;;;;;6.59;66.93;97522.81;5091609;28;20032;-47
2022/04/01 09:21:27;;;;;;;10.48;2.22;;;;;;;6.75;68.08;97511.16;5029579;28;20080;-46
2022/04/01 09:23:53;;;;;;;19.98;2.05;;;;;;;6.82;62.60;97529.38;5016567;28;20049;-47
2022/04/01 09:26:30;;;;;;;12.45;2.75;;;;;;;6.78;64.78;97509.94;5033025;28;20032;-45
2022/04/01 09:28:56;;;;;;;10.20;2.20;;;;;;;6.67;62.12;97518.41;5016183;28;20608;-46
2022/04/01 09:31:24;;;;;;;10.23;3.00;;;;;;;6.53;63.24;97521.03;5032935;28;20422;-46
2022/04/01 09:33:52;;;;;;;15.75;7.63;;;;;;;6.49;62.45;97522.44;5032915;28;20034;-46
2022/04/01 09:36:22;;;;;;;6.38;2.60;;;;;;;6.56;63.53;97530.25;5032858;28;20434;-45
2022/04/01 09:39:07;;;;;;;10.13;1.95;;;;;;;6.58;62.36;97530.88;5032871;28;20148;-46
2022/04/01 09:41:37;;;;;;;8.32;2.20;;;;;;;6.60;62.11;97547.09;5016236;28;20048;-45
2022/04/01 09:44:12;;;;;;;5.32;1.67;;;;;;;6.51;61.88;97536.06;5032669;28;20053;-46
2022/04/01 09:46:50;;;;;;;5.60;2.10;;;;;;;6.49;62.45;97548.50;5032752;28;20494;-45
2022/04/01 09:49:39;;;;;;;5.88;1.90;;;;;;;6.49;64.49;97542.50;5016030;28;20406;-45
2022/04/01 09:52:25;;;;;;;9.90;1.90;;;;;;;6.63;64.75;97544.06;4999806;28;20029;-45
2022/04/01 09:54:52;;;;;;;;;;;;;;;6.72;64.17;97542.03;5032735;28;20037;-45
2022/04/01 09:57:21;;;;;;;5.53;2.47;;;;;;;6.89;63.28;97537.22;5065860;28;19908;-44
2022/04/01 09:59:49;;;;;;;3.08;1.67;;;;;;;6.96;63.30;97532.75;5093577;28;20024;-46
2022/04/01 10:02:15;;;;;;;6.05;1.92;;;;;;;6.92;61.79;97539.41;5093451;28;20040;-45
2022/04/01 10:04:40;;;;;;;9.48;1.95;;;;;;;6.86;63.47;97538.44;5094737;28;20562;-45
2022/04/01 10:07:07;;;;;;;4.65;1.40;;;;;;;6.97;62.09;97540.38;5093413;28;20032;-45
2022/04/01 10:09:34;;;;;;;5.20;1.88;;;;;;;7.11;63.39;97535.94;5094500;28;20027;-48
2022/04/01 10:12:08;;;;;;;5.78;1.30;;;;;;;7.06;58.94;97533.13;5094599;28;20051;-45
2022/04/01 10:14:35;;;;;;;7.20;2.20;;;;;;;6.90;61.15;97537.00;5093296;28;20463;-45
2022/04/01 10:17:01;;;;;;;6.60;2.33;;;;;;;7.04;63.02;97536.94;5093171;28;20413;-46
2022/04/01 10:19:34;;;;;;;5.78;1.70;;;;;;;7.26;60.57;97540.09;5094424;28;20020;-45
2022/04/01 10:22:01;;;;;;;10.88;3.50;;;;;;;7.38;60.13;97539.25;5094671;28;20039;-46
2022/04/01 10:24:29;;;;;;;12.45;2.10;;;;;;;7.55;60.66;97542.16;5094315;28;20116;-46
2022/04/01 10:27:04;;;;;;;10.85;2.15;;;;;;;7.59;59.68;97550.38;5094291;28;20024;-46
2022/04/01 10:29:34;;;;;;;3.28;1.33;;;;;;;7.54;58.58;97550.19;5093932;28;20131;-45
2022/04/01 10:32:23;;;;;;;6.13;1.30;;;;;;;7.54;60.25;97543.16;5094269;28;20016;-46
2022/04/01 10:34:53;;;;;;;5.28;1.40;;;;;;;7.63;59.43;97548.16;5092227;28;20023;-46
2022/04/01 10:37:22;;;;;;;5.38;1.58;;;;;;;7.53;57.79;97546.00;5094150;28;20101;-47
2022/04/01 10:39:52;;;;;;;7.97;1.65;;;;;;;7.33;58.07;97541.66;5094110;28;20024;-46
2022/04/01 10:42:19;;;;;;;9.70;1.88;;;;;;;7.24;58.47;97542.91;5092718;28;20227;-46
2022/04/01 10:44:49;;;;;;;7.93;1.73;;;;;;;7.09;57.83;97545.78;5094022;28;20046;-45
2022/04/01 10:47:16;;;;;;;4.47;1.75;;;;;;;6.94;58.72;97540.81;5093877;28;20024;-46
2022/04/01 10:52:26;;;;;;;5.68;1.70;;;;;;;6.96;58.16;97549.22;5094047;28;20081;-46
2022/04/01 10:55:05;;;;;;;3.35;1.20;;;;;;;7.05;59.71;97551.63;5093830;28;20100;-45
2022/04/01 10:57:33;;;;;;;10.77;1.90;;;;;;;7.12;59.88;97552.38;5093755;28;20031;-46
2022/04/01 11:00:12;;;;;;;8.00;1.95;;;;;;;7.24;60.22;97552.53;5093732;28;20024;-47
2022/04/01 11:02:38;;;;;;;5.93;1.98;;;;;;;7.29;59.66;97552.75;5093729;28;20035;-47
2022/04/01 11:05:25;;;;;;;5.28;1.73;;;;;;;7.29;59.34;97555.34;5093490;28;20493;-48
2022/04/01 11:08:28;;;;;;;12.55;1.70;;;;;;;7.16;58.55;97553.56;5093537;28;20024;-46
2022/04/01 11:11:05;;;;;;;8.98;2.08;;;;;;;7.27;58.29;97547.72;5093493;28;20516;-46
2022/04/01 11:13:31;;;;;;;10.57;2.33;;;;;;;7.31;57.74;97555.94;5093389;28;20081;-48
2022/04/01 11:16:20;;;;;;;13.77;2.38;;;;;;;7.25;57.22;97562.78;5092100;28;20040;-46
2022/04/01 11:19:17;;;;;;;11.00;2.03;;;;;;;7.39;56.13;97553.09;5093372;28;20039;-46
2022/04/01 11:21:45;;;;;;;6.25;1.50;;;;;;;7.66;55.51;97553.75;5091989;28;20052;-48
2022/04/01 11:24:33;;;;;;;5.88;1.33;;;;;;;7.85;56.24;97543.38;5093451;28;20452;-47
2022/04/01 11:27:22;;;;;;;4.47;1.30;;;;;;;8.03;54.99;97553.13;5093436;28;20095;-48
2022/04/01 11:30:06;;;;;;;10.15;1.77;;;;;;;8.31;55.57;97553.53;5092825;28;20421;-48
2022/04/01 11:32:40;;;;;;;10.82;1.90;;;;;;;8.31;54.09;97555.31;5093117;28;20024;-48
2022/04/01 11:35:08;;;;;;;13.82;2.63;;;;;;;8.20;54.12;97552.38;5093002;28;20036;-47
2022/04/01 11:37:40;;;;;;;9.30;2.90;;;;;;;8.18;55.14;97558.84;5092954;28;20394;-48
2022/04/01 11:40:18;;;;;;;14.40;2.60;;;;;;;8.07;55.15;97552.50;5091551;28;20096;-48
2022/04/01 11:42:58;;;;;;;19.85;2.95;;;;;;;7.95;54.61;97552.38;5091593;28;20059;-46
2022/04/01 11:45:29;;;;;;;13.77;3.97;;;;;;;7.81;55.07;97545.66;5091874;28;20025;-47
2022/04/01 11:47:55;;;;;;;11.07;1.98;;;;;;;7.90;55.08;97546.19;5091517;28;20548;-47
2022/04/01 11:50:23;;;;;;;12.25;2.65;;;;;;;8.09;56.19;97547.88;5092604;28;20103;-46
2022/04/01 11:52:53;;;;;;;10.07;3.38;;;;;;;8.33;55.88;97542.84;5092741;28;20042;-47
2022/04/01 11:55:21;;;;;;;6.75;2.45;;;;;;;8.53;54.05;97535.69;5092679;28;20537;-48
2022/04/01 11:57:47;;;;;;;9.32;2.30;;;;;;;8.67;53.85;97538.16;5092587;28;20051;-48